sensor_id;sensor_type;location;lat;lon;timestamp;temperature;humidity
8557;DHT22;4316;53.840;10.762;2023-02-07T00:01:11;-0.70;99.90
8557;DHT22;4316;53.840;10.762;2023-02-07T00:03:37;-0.70;99.90
8557;DHT22;4316;53.840;10.762;2023-02-07T00:06:11;-0.80;99.90
8557;DHT22;4316;53.840;10.762;2023-02-07T00:08:38;-0.80;99.90
8557;DHT22;4316;53.840;10.762;2023-02-07T00:11:10;-0.80;99.90
8557;DHT22;4316;53.840;10.762;2023-02-07T00:13:37;-0.80;99.90
8557;DHT22;4316;53.840;10.762;2023-02-07T00:16:04;-0.80;99.90
8557;DHT22;4316;53.840;10.762;2023-02-07T00:18:31;-0.70;99.90
8557;DHT22;4316;53.840;10.762;2023-02-07T00:21:02;-0.80;99.90
8557;DHT22;4316;53.840;10.762;2023-02-07T00:23:28;-0.80;99.90
8557;DHT22;4316;53.840;10.762;2023-02-07T00:25:54;-0.80;99.90
8557;DHT22;4316;53.840;10.762;2023-02-07T00:28:20;-0.80;99.90
8557;DHT22;4316;53.840;10.762;2023-02-07T00:30:46;-0.80;99.90
8557;DHT22;4316;53.840;10.762;2023-02-07T00:33:12;-0.80;99.90
8557;DHT22;4316;53.840;10.762;2023-02-07T00:35:37;-0.80;99.90
8557;DHT22;4316;53.840;10.762;2023-02-07T00:38:05;-0.80;99.90
8557;DHT22;4316;53.840;10.762;2023-02-07T00:40:32;-0.90;99.90
8557;DHT22;4316;53.840;10.762;2023-02-07T00:42:58;-0.90;99.90
8557;DHT22;4316;53.840;10.762;2023-02-07T00:45:23;-0.90;99.90
8557;DHT22;4316;53.840;10.762;2023-02-07T00:47:49;-0.90;99.90
8557;DHT22;4316;53.840;10.762;2023-02-07T00:50:15;-0.90;99.90
8557;DHT22;4316;53.840;10.762;2023-02-07T00:52:41;-0.80;99.90
8557;DHT22;4316;53.840;10.762;2023-02-07T00:55:07;-0.80;99.90
8557;DHT22;4316;53.840;10.762;2023-02-07T00:57:33;-0.90;99.90
8557;DHT22;4316;53.840;10.762;2023-02-07T00:59:58;-1.00;99.90
8557;DHT22;4316;53.840;10.762;2023-02-07T01:02:24;-1.00;99.90
8557;DHT22;4316;53.840;10.762;2023-02-07T01:04:50;-1.00;99.90
8557;DHT22;4316;53.840;10.762;2023-02-07T01:07:16;-1.00;99.90
8557;DHT22;4316;53.840;10.762;2023-02-07T01:09:41;-1.00;99.90
8557;DHT22;4316;53.840;10.762;2023-02-07T01:12:07;-1.10;99.90
8557;DHT22;4316;53.840;10.762;2023-02-07T01:14:33;-1.10;99.90
8557;DHT22;4316;53.840;10.762;2023-02-07T01:16:58;-1.10;99.90
8557;DHT22;4316;53.840;10.762;2023-02-07T01:19:24;-1.10;99.90
8557;DHT22;4316;53.840;10.762;2023-02-07T01:21:50;-1.00;99.90
8557;DHT22;4316;53.840;10.762;2023-02-07T01:24:16;-1.20;99.90
8557;DHT22;4316;53.840;10.762;2023-02-07T01:26:41;-0.90;99.90
8557;DHT22;4316;53.840;10.762;2023-02-07T01:29:08;-1.10;99.90
8557;DHT22;4316;53.840;10.762;2023-02-07T01:31:35;-1.20;99.90
8557;DHT22;4316;53.840;10.762;2023-02-07T01:34:01;-1.20;99.90
8557;DHT22;4316;53.840;10.762;2023-02-07T01:36:28;-1.20;99.90
8557;DHT22;4316;53.840;10.762;2023-02-07T01:38:54;-1.20;99.90
8557;DHT22;4316;53.840;10.762;2023-02-07T01:41:21;-1.20;99.90
8557;DHT22;4316;53.840;10.762;2023-02-07T01:46:54;-1.20;99.90
8557;DHT22;4316;53.840;10.762;2023-02-07T01:49:24;-1.20;99.90
8557;DHT22;4316;53.840;10.762;2023-02-07T01:52:04;-1.20;99.90
8557;DHT22;4316;53.840;10.762;2023-02-07T01:54:31;-1.20;99.90
8557;DHT22;4316;53.840;10.762;2023-02-07T01:57:03;-1.20;99.90
8557;DHT22;4316;53.840;10.762;2023-02-07T01:59:31;-1.20;99.90
8557;DHT22;4316;53.840;10.762;2023-02-07T02:01:59;-1.20;99.90
8557;DHT22;4316;53.840;10.762;2023-02-07T02:04:26;-1.20;99.90
8557;DHT22;4316;53.840;10.762;2023-02-07T02:06:52;-1.10;99.90
8557;DHT22;4316;53.840;10.762;2023-02-07T02:09:18;-1.10;99.90
8557;DHT22;4316;53.840;10.762;2023-02-07T02:12:07;-1.10;99.90
8557;DHT22;4316;53.840;10.762;2023-02-07T02:14:54;-1.10;99.90
8557;DHT22;4316;53.840;10.762;2023-02-07T02:35:01;-1.40;99.90
8557;DHT22;4316;53.840;10.762;2023-02-07T02:37:51;-1.40;99.90
8557;DHT22;4316;53.840;10.762;2023-02-07T02:43:13;-1.40;99.90
8557;DHT22;4316;53.840;10.762;2023-02-07T02:45:58;-1.40;99.90
8557;DHT22;4316;53.840;10.762;2023-02-07T02:48:26;-1.40;99.90
8557;DHT22;4316;53.840;10.762;2023-02-07T02:50:54;-1.40;99.90
8557;DHT22;4316;53.840;10.762;2023-02-07T02:53:21;-1.40;99.90
8557;DHT22;4316;53.840;10.762;2023-02-07T02:56:13;-1.50;99.90
8557;DHT22;4316;53.840;10.762;2023-02-07T03:02:17;-1.60;99.90
8557;DHT22;4316;53.840;10.762;2023-02-07T03:14:19;-1.60;99.90
8557;DHT22;4316;53.840;10.762;2023-02-07T03:19:53;-1.60;99.90
8557;DHT22;4316;53.840;10.762;2023-02-07T03:22:23;-1.60;99.90
8557;DHT22;4316;53.840;10.762;2023-02-07T03:24:53;-1.70;99.90
8557;DHT22;4316;53.840;10.762;2023-02-07T03:27:23;-1.70;99.90
8557;DHT22;4316;53.840;10.762;2023-02-07T03:29:52;-1.60;99.90
8557;DHT22;4316;53.840;10.762;2023-02-07T03:32:32;-1.70;99.90
8557;DHT22;4316;53.840;10.762;2023-02-07T03:35:18;-1.80;99.90
8557;DHT22;4316;53.840;10.762;2023-02-07T03:37:56;-1.80;99.90
8557;DHT22;4316;53.840;10.762;2023-02-07T03:40:26;-1.70;99.90
8557;DHT22;4316;53.840;10.762;2023-02-07T03:42:58;-1.70;99.90
8557;DHT22;4316;53.840;10.762;2023-02-07T03:45:24;-1.70;99.90
8557;DHT22;4316;53.840;10.762;2023-02-07T03:47:50;-1.70;99.90
8557;DHT22;4316;53.840;10.762;2023-02-07T03:50:16;-1.70;99.90
8557;DHT22;4316;53.840;10.762;2023-02-07T03:52:42;-1.70;99.90
8557;DHT22;4316;53.840;10.762;2023-02-07T03:55:09;-1.80;99.90
8557;DHT22;4316;53.840;10.762;2023-02-07T03:57:34;-1.80;99.90
8557;DHT22;4316;53.840;10.762;2023-02-07T04:00:00;-1.80;99.90
8557;DHT22;4316;53.840;10.762;2023-02-07T04:02:26;-1.80;99.90
8557;DHT22;4316;53.840;10.762;2023-02-07T04:04:51;-1.80;99.90
8557;DHT22;4316;53.840;10.762;2023-02-07T04:07:17;-1.80;99.90
8557;DHT22;4316;53.840;10.762;2023-02-07T04:09:43;-1.80;99.90
8557;DHT22;4316;53.840;10.762;2023-02-07T04:12:09;-1.80;99.90
8557;DHT22;4316;53.840;10.762;2023-02-07T04:14:34;-2.10;99.90
8557;DHT22;4316;53.840;10.762;2023-02-07T04:17:00;-1.90;99.90
8557;DHT22;4316;53.840;10.762;2023-02-07T04:19:26;-1.80;99.90
8557;DHT22;4316;53.840;10.762;2023-02-07T04:21:52;-1.90;99.90
8557;DHT22;4316;53.840;10.762;2023-02-07T04:24:17;-1.90;99.90
8557;DHT22;4316;53.840;10.762;2023-02-07T04:26:43;-1.90;99.90
8557;DHT22;4316;53.840;10.762;2023-02-07T04:29:09;-1.90;99.90
8557;DHT22;4316;53.840;10.762;2023-02-07T04:31:35;-2.00;99.90
8557;DHT22;4316;53.840;10.762;2023-02-07T04:34:02;-1.90;99.90
8557;DHT22;4316;53.840;10.762;2023-02-07T04:36:28;-2.00;99.90
8557;DHT22;4316;53.840;10.762;2023-02-07T04:38:55;-2.00;99.90
8557;DHT22;4316;53.840;10.762;2023-02-07T04:41:21;-2.00;99.90
8557;DHT22;4316;53.840;10.762;2023-02-07T04:43:47;-2.00;99.90
8557;DHT22;4316;53.840;10.762;2023-02-07T04:46:13;-2.00;99.90
8557;DHT22;4316;53.840;10.762;2023-02-07T04:48:39;-2.00;99.90
8557;DHT22;4316;53.840;10.762;2023-02-07T04:51:05;-2.00;99.90
8557;DHT22;4316;53.840;10.762;2023-02-07T04:53:31;-2.00;99.90
8557;DHT22;4316;53.840;10.762;2023-02-07T04:55:57;-2.10;99.90
8557;DHT22;4316;53.840;10.762;2023-02-07T04:58:23;-2.10;99.90
8557;DHT22;4316;53.840;10.762;2023-02-07T05:00:49;-2.10;99.90
8557;DHT22;4316;53.840;10.762;2023-02-07T05:03:15;-2.10;99.90
8557;DHT22;4316;53.840;10.762;2023-02-07T05:05:41;-2.10;99.90
8557;DHT22;4316;53.840;10.762;2023-02-07T05:08:08;-2.10;99.90
8557;DHT22;4316;53.840;10.762;2023-02-07T05:10:34;-2.20;99.90
8557;DHT22;4316;53.840;10.762;2023-02-07T05:13:00;-2.20;99.90
8557;DHT22;4316;53.840;10.762;2023-02-07T05:15:26;-2.20;99.90
8557;DHT22;4316;53.840;10.762;2023-02-07T05:17:52;-2.20;99.90
8557;DHT22;4316;53.840;10.762;2023-02-07T05:20:19;-2.20;99.90
8557;DHT22;4316;53.840;10.762;2023-02-07T05:22:45;-2.30;99.90
8557;DHT22;4316;53.840;10.762;2023-02-07T05:25:10;-2.30;99.90
8557;DHT22;4316;53.840;10.762;2023-02-07T05:27:36;-2.30;99.90
8557;DHT22;4316;53.840;10.762;2023-02-07T05:30:03;-2.40;99.90
8557;DHT22;4316;53.840;10.762;2023-02-07T05:32:29;-2.40;99.90
8557;DHT22;4316;53.840;10.762;2023-02-07T05:35:13;-2.30;99.90
8557;DHT22;4316;53.840;10.762;2023-02-07T05:37:39;-2.50;99.90
8557;DHT22;4316;53.840;10.762;2023-02-07T05:40:05;-2.60;99.90
8557;DHT22;4316;53.840;10.762;2023-02-07T05:42:31;-2.60;99.90
8557;DHT22;4316;53.840;10.762;2023-02-07T05:44:57;-2.50;99.90
8557;DHT22;4316;53.840;10.762;2023-02-07T05:47:22;-2.50;99.90
8557;DHT22;4316;53.840;10.762;2023-02-07T05:49:48;-2.60;99.90
8557;DHT22;4316;53.840;10.762;2023-02-07T05:52:14;-2.60;99.90
8557;DHT22;4316;53.840;10.762;2023-02-07T05:54:40;-2.50;99.90
8557;DHT22;4316;53.840;10.762;2023-02-07T05:57:06;-2.50;99.90
8557;DHT22;4316;53.840;10.762;2023-02-07T05:59:31;-2.50;99.90
8557;DHT22;4316;53.840;10.762;2023-02-07T06:01:57;-2.50;99.90
8557;DHT22;4316;53.840;10.762;2023-02-07T06:04:23;-2.50;99.90
8557;DHT22;4316;53.840;10.762;2023-02-07T06:06:49;-2.50;99.90
8557;DHT22;4316;53.840;10.762;2023-02-07T06:09:14;-2.50;99.90
8557;DHT22;4316;53.840;10.762;2023-02-07T06:11:40;-2.60;99.90
8557;DHT22;4316;53.840;10.762;2023-02-07T06:14:06;-2.60;99.90
8557;DHT22;4316;53.840;10.762;2023-02-07T06:16:32;-2.50;99.90
8557;DHT22;4316;53.840;10.762;2023-02-07T06:18:58;-2.60;99.90
8557;DHT22;4316;53.840;10.762;2023-02-07T06:21:23;-2.70;99.90
8557;DHT22;4316;53.840;10.762;2023-02-07T06:23:49;-2.60;99.90
8557;DHT22;4316;53.840;10.762;2023-02-07T06:26:16;-2.70;99.90
8557;DHT22;4316;53.840;10.762;2023-02-07T06:28:42;-2.60;99.90
8557;DHT22;4316;53.840;10.762;2023-02-07T06:31:08;-2.60;99.90
8557;DHT22;4316;53.840;10.762;2023-02-07T06:33:34;-2.60;99.90
8557;DHT22;4316;53.840;10.762;2023-02-07T06:36:00;-2.70;99.90
8557;DHT22;4316;53.840;10.762;2023-02-07T06:38:26;-2.70;99.90
8557;DHT22;4316;53.840;10.762;2023-02-07T06:40:51;-2.70;99.90
8557;DHT22;4316;53.840;10.762;2023-02-07T06:43:17;-2.60;99.90
8557;DHT22;4316;53.840;10.762;2023-02-07T06:45:43;-2.70;99.90
8557;DHT22;4316;53.840;10.762;2023-02-07T06:48:09;-2.70;99.90
8557;DHT22;4316;53.840;10.762;2023-02-07T06:50:35;-2.70;99.90
8557;DHT22;4316;53.840;10.762;2023-02-07T06:53:01;-2.70;99.90
8557;DHT22;4316;53.840;10.762;2023-02-07T06:55:34;-2.60;99.90
8557;DHT22;4316;53.840;10.762;2023-02-07T06:58:00;-2.60;99.90
8557;DHT22;4316;53.840;10.762;2023-02-07T07:00:26;-2.70;99.90
8557;DHT22;4316;53.840;10.762;2023-02-07T07:02:52;-2.70;99.90
8557;DHT22;4316;53.840;10.762;2023-02-07T07:05:18;-2.70;99.90
8557;DHT22;4316;53.840;10.762;2023-02-07T07:07:44;-2.70;99.90
8557;DHT22;4316;53.840;10.762;2023-02-07T07:10:10;-2.70;99.90
8557;DHT22;4316;53.840;10.762;2023-02-07T07:12:37;-2.70;99.90
8557;DHT22;4316;53.840;10.762;2023-02-07T07:15:03;-2.80;99.90
8557;DHT22;4316;53.840;10.762;2023-02-07T07:17:29;-2.80;99.90
8557;DHT22;4316;53.840;10.762;2023-02-07T07:19:55;-2.80;99.90
8557;DHT22;4316;53.840;10.762;2023-02-07T07:22:21;-2.70;99.90
8557;DHT22;4316;53.840;10.762;2023-02-07T07:24:46;-2.70;99.90
8557;DHT22;4316;53.840;10.762;2023-02-07T07:27:12;-2.70;99.90
8557;DHT22;4316;53.840;10.762;2023-02-07T07:29:38;-2.70;99.90
8557;DHT22;4316;53.840;10.762;2023-02-07T07:32:04;-2.60;99.90
8557;DHT22;4316;53.840;10.762;2023-02-07T07:34:30;-2.60;99.90
8557;DHT22;4316;53.840;10.762;2023-02-07T07:36:56;-2.60;99.90
8557;DHT22;4316;53.840;10.762;2023-02-07T07:39:23;-2.60;99.90
8557;DHT22;4316;53.840;10.762;2023-02-07T07:41:49;-2.60;99.90
8557;DHT22;4316;53.840;10.762;2023-02-07T07:44:29;-2.50;99.90
8557;DHT22;4316;53.840;10.762;2023-02-07T07:46:55;-2.50;99.90
8557;DHT22;4316;53.840;10.762;2023-02-07T07:49:21;-2.50;99.90
8557;DHT22;4316;53.840;10.762;2023-02-07T07:51:47;-2.40;99.90
8557;DHT22;4316;53.840;10.762;2023-02-07T07:54:13;-2.40;99.90
8557;DHT22;4316;53.840;10.762;2023-02-07T07:56:39;-2.40;99.90
8557;DHT22;4316;53.840;10.762;2023-02-07T07:59:04;-2.30;99.90
8557;DHT22;4316;53.840;10.762;2023-02-07T08:01:30;-2.30;99.90
8557;DHT22;4316;53.840;10.762;2023-02-07T08:03:56;-2.30;99.90
8557;DHT22;4316;53.840;10.762;2023-02-07T08:06:22;-2.30;99.90
8557;DHT22;4316;53.840;10.762;2023-02-07T08:08:47;-2.20;99.90
8557;DHT22;4316;53.840;10.762;2023-02-07T08:11:13;-2.10;99.90
8557;DHT22;4316;53.840;10.762;2023-02-07T08:13:39;-2.10;99.90
8557;DHT22;4316;53.840;10.762;2023-02-07T08:16:06;-2.00;99.90
8557;DHT22;4316;53.840;10.762;2023-02-07T08:18:36;-2.00;99.90
8557;DHT22;4316;53.840;10.762;2023-02-07T08:21:02;-2.10;99.90
8557;DHT22;4316;53.840;10.762;2023-02-07T08:23:27;-2.10;99.90
8557;DHT22;4316;53.840;10.762;2023-02-07T08:25:54;-2.00;99.90
8557;DHT22;4316;53.840;10.762;2023-02-07T08:28:20;-2.00;99.90
8557;DHT22;4316;53.840;10.762;2023-02-07T08:30:46;-2.00;99.90
8557;DHT22;4316;53.840;10.762;2023-02-07T08:33:13;-1.90;99.90
8557;DHT22;4316;53.840;10.762;2023-02-07T08:35:39;-1.80;99.90
8557;DHT22;4316;53.840;10.762;2023-02-07T08:38:05;-1.70;99.90
8557;DHT22;4316;53.840;10.762;2023-02-07T08:40:32;-1.60;99.90
8557;DHT22;4316;53.840;10.762;2023-02-07T08:42:58;-1.50;99.90
8557;DHT22;4316;53.840;10.762;2023-02-07T08:45:24;-1.70;99.90
8557;DHT22;4316;53.840;10.762;2023-02-07T08:47:50;-1.70;99.90
8557;DHT22;4316;53.840;10.762;2023-02-07T08:50:16;-1.70;99.90
8557;DHT22;4316;53.840;10.762;2023-02-07T08:52:42;-1.80;99.90
8557;DHT22;4316;53.840;10.762;2023-02-07T08:55:09;-1.70;99.90
8557;DHT22;4316;53.840;10.762;2023-02-07T08:57:36;-1.60;99.90
8557;DHT22;4316;53.840;10.762;2023-02-07T09:00:04;-1.50;99.90
8557;DHT22;4316;53.840;10.762;2023-02-07T09:02:30;-1.50;99.90
8557;DHT22;4316;53.840;10.762;2023-02-07T09:04:56;-1.40;99.90
8557;DHT22;4316;53.840;10.762;2023-02-07T09:07:22;-1.40;99.90
8557;DHT22;4316;53.840;10.762;2023-02-07T09:09:48;-1.30;99.90
8557;DHT22;4316;53.840;10.762;2023-02-07T09:12:14;-1.30;99.90
8557;DHT22;4316;53.840;10.762;2023-02-07T09:14:39;-1.20;99.90
8557;DHT22;4316;53.840;10.762;2023-02-07T09:17:06;-1.30;99.90
8557;DHT22;4316;53.840;10.762;2023-02-07T09:19:33;-1.10;99.90
8557;DHT22;4316;53.840;10.762;2023-02-07T09:21:59;-1.30;99.90
8557;DHT22;4316;53.840;10.762;2023-02-07T09:24:25;-1.40;99.90
8557;DHT22;4316;53.840;10.762;2023-02-07T09:26:52;-1.30;99.90
8557;DHT22;4316;53.840;10.762;2023-02-07T09:29:17;-1.20;99.90
8557;DHT22;4316;53.840;10.762;2023-02-07T09:31:43;-1.20;99.90
8557;DHT22;4316;53.840;10.762;2023-02-07T09:34:09;-1.00;99.90
8557;DHT22;4316;53.840;10.762;2023-02-07T09:36:35;-1.00;99.90
8557;DHT22;4316;53.840;10.762;2023-02-07T09:39:02;-0.90;99.90
8557;DHT22;4316;53.840;10.762;2023-02-07T09:41:42;-0.80;99.90
8557;DHT22;4316;53.840;10.762;2023-02-07T09:44:57;-0.70;99.90
8557;DHT22;4316;53.840;10.762;2023-02-07T09:47:26;-0.70;99.90
8557;DHT22;4316;53.840;10.762;2023-02-07T09:50:05;-0.70;99.90
8557;DHT22;4316;53.840;10.762;2023-02-07T09:52:36;-0.70;99.90
8557;DHT22;4316;53.840;10.762;2023-02-07T09:55:04;-0.60;99.90
8557;DHT22;4316;53.840;10.762;2023-02-07T09:57:37;-0.60;99.90
8557;DHT22;4316;53.840;10.762;2023-02-07T10:00:23;-0.60;99.90
8557;DHT22;4316;53.840;10.762;2023-02-07T10:03:02;-0.60;99.90
8557;DHT22;4316;53.840;10.762;2023-02-07T10:06:06;-0.70;99.90
8557;DHT22;4316;53.840;10.762;2023-02-07T10:08:37;-0.60;99.90
8557;DHT22;4316;53.840;10.762;2023-02-07T10:11:21;-0.60;99.90
8557;DHT22;4316;53.840;10.762;2023-02-07T10:16:50;-0.50;99.90
8557;DHT22;4316;53.840;10.762;2023-02-07T10:27:37;-0.40;99.90
8557;DHT22;4316;53.840;10.762;2023-02-07T10:30:24;-0.40;99.90
8557;DHT22;4316;53.840;10.762;2023-02-07T10:32:51;-0.40;99.90
8557;DHT22;4316;53.840;10.762;2023-02-07T10:35:26;-0.40;99.90
8557;DHT22;4316;53.840;10.762;2023-02-07T10:37:58;-0.30;99.90
8557;DHT22;4316;53.840;10.762;2023-02-07T10:40:28;-0.20;99.90
8557;DHT22;4316;53.840;10.762;2023-02-07T10:43:05;-0.20;99.90
8557;DHT22;4316;53.840;10.762;2023-02-07T10:45:35;-0.10;99.90
8557;DHT22;4316;53.840;10.762;2023-02-07T10:48:17;0.00;99.90
8557;DHT22;4316;53.840;10.762;2023-02-07T10:50:44;0.00;99.90
8557;DHT22;4316;53.840;10.762;2023-02-07T10:53:10;-0.30;99.90
8557;DHT22;4316;53.840;10.762;2023-02-07T10:55:44;-0.10;99.90
8557;DHT22;4316;53.840;10.762;2023-02-07T10:58:22;-0.10;99.90
8557;DHT22;4316;53.840;10.762;2023-02-07T11:00:53;-0.10;99.90
8557;DHT22;4316;53.840;10.762;2023-02-07T11:03:23;0.00;99.90
8557;DHT22;4316;53.840;10.762;2023-02-07T11:06:01;0.00;99.90
8557;DHT22;4316;53.840;10.762;2023-02-07T11:08:33;-0.10;99.90
8557;DHT22;4316;53.840;10.762;2023-02-07T11:13:47;0.10;99.90
8557;DHT22;4316;53.840;10.762;2023-02-07T11:16:17;0.20;99.90
8557;DHT22;4316;53.840;10.762;2023-02-07T11:18:46;0.20;99.90
8557;DHT22;4316;53.840;10.762;2023-02-07T11:21:34;0.20;99.90
8557;DHT22;4316;53.840;10.762;2023-02-07T11:26:48;0.30;99.90
8557;DHT22;4316;53.840;10.762;2023-02-07T11:29:18;0.20;99.90
8557;DHT22;4316;53.840;10.762;2023-02-07T11:31:45;0.30;99.90
8557;DHT22;4316;53.840;10.762;2023-02-07T11:37:20;0.10;99.90
8557;DHT22;4316;53.840;10.762;2023-02-07T11:39:48;0.20;99.90
8557;DHT22;4316;53.840;10.762;2023-02-07T11:42:22;0.20;99.90
8557;DHT22;4316;53.840;10.762;2023-02-07T11:44:49;0.30;99.90
8557;DHT22;4316;53.840;10.762;2023-02-07T11:47:21;0.30;99.90
8557;DHT22;4316;53.840;10.762;2023-02-07T11:49:52;0.30;99.90
8557;DHT22;4316;53.840;10.762;2023-02-07T11:52:19;0.30;99.90
8557;DHT22;4316;53.840;10.762;2023-02-07T11:54:52;0.30;99.90
8557;DHT22;4316;53.840;10.762;2023-02-07T11:57:20;0.30;99.90
8557;DHT22;4316;53.840;10.762;2023-02-07T12:02:19;0.30;99.90
8557;DHT22;4316;53.840;10.762;2023-02-07T12:04:47;0.30;99.90
8557;DHT22;4316;53.840;10.762;2023-02-07T12:12:20;0.40;99.90
8557;DHT22;4316;53.840;10.762;2023-02-07T12:14:58;0.50;99.90
8557;DHT22;4316;53.840;10.762;2023-02-07T12:18:03;0.40;99.90
8557;DHT22;4316;53.840;10.762;2023-02-07T12:23:12;0.60;99.90
8557;DHT22;4316;53.840;10.762;2023-02-07T12:25:59;0.50;99.90
8557;DHT22;4316;53.840;10.762;2023-02-07T12:28:48;0.60;99.90
8557;DHT22;4316;53.840;10.762;2023-02-07T12:31:29;0.60;99.90
8557;DHT22;4316;53.840;10.762;2023-02-07T12:34:08;0.70;99.90
8557;DHT22;4316;53.840;10.762;2023-02-07T12:36:39;0.80;99.90
8557;DHT22;4316;53.840;10.762;2023-02-07T12:39:23;0.80;99.90
8557;DHT22;4316;53.840;10.762;2023-02-07T12:44:46;0.40;99.90
8557;DHT22;4316;53.840;10.762;2023-02-07T12:50:19;0.20;99.90
8557;DHT22;4316;53.840;10.762;2023-02-07T12:53:10;0.30;99.90
8557;DHT22;4316;53.840;10.762;2023-02-07T12:56:09;0.50;99.90
8557;DHT22;4316;53.840;10.762;2023-02-07T13:07:25;0.50;99.90
8557;DHT22;4316;53.840;10.762;2023-02-07T13:13:02;0.80;99.90
8557;DHT22;4316;53.840;10.762;2023-02-07T13:18:21;1.00;99.90
8557;DHT22;4316;53.840;10.762;2023-02-07T13:21:12;1.10;99.90
8557;DHT22;4316;53.840;10.762;2023-02-07T13:23:42;1.00;99.90
8557;DHT22;4316;53.840;10.762;2023-02-07T13:26:14;0.90;99.90
8557;DHT22;4316;53.840;10.762;2023-02-07T13:28:49;0.90;99.90
8557;DHT22;4316;53.840;10.762;2023-02-07T13:31:32;1.00;99.90
8557;DHT22;4316;53.840;10.762;2023-02-07T13:34:00;1.00;99.90
8557;DHT22;4316;53.840;10.762;2023-02-07T13:36:48;0.80;99.90
8557;DHT22;4316;53.840;10.762;2023-02-07T13:48:00;0.90;99.90
8557;DHT22;4316;53.840;10.762;2023-02-07T13:50:35;0.90;99.90
8557;DHT22;4316;53.840;10.762;2023-02-07T13:55:58;0.90;99.90
8557;DHT22;4316;53.840;10.762;2023-02-07T14:01:26;1.10;99.90
8557;DHT22;4316;53.840;10.762;2023-02-07T14:04:11;1.10;99.90
8557;DHT22;4316;53.840;10.762;2023-02-07T14:06:39;1.10;99.90
8557;DHT22;4316;53.840;10.762;2023-02-07T14:09:16;1.00;99.90
8557;DHT22;4316;53.840;10.762;2023-02-07T14:12:17;0.90;99.90
8557;DHT22;4316;53.840;10.762;2023-02-07T14:14:44;0.90;99.90
8557;DHT22;4316;53.840;10.762;2023-02-07T14:20:03;0.90;99.90
8557;DHT22;4316;53.840;10.762;2023-02-07T14:30:37;1.00;99.90
8557;DHT22;4316;53.840;10.762;2023-02-07T14:38:57;1.10;99.90
8557;DHT22;4316;53.840;10.762;2023-02-07T14:41:28;1.10;99.90
8557;DHT22;4316;53.840;10.762;2023-02-07T14:43:56;1.10;99.90
8557;DHT22;4316;53.840;10.762;2023-02-07T14:46:47;1.10;99.90
8557;DHT22;4316;53.840;10.762;2023-02-07T14:49:30;1.10;99.90
8557;DHT22;4316;53.840;10.762;2023-02-07T14:54:50;1.10;99.90
8557;DHT22;4316;53.840;10.762;2023-02-07T14:58:23;1.10;99.90
8557;DHT22;4316;53.840;10.762;2023-02-07T15:02:56;1.00;99.90
8557;DHT22;4316;53.840;10.762;2023-02-07T15:08:16;1.00;99.90
8557;DHT22;4316;53.840;10.762;2023-02-07T15:13:28;1.10;99.90
8557;DHT22;4316;53.840;10.762;2023-02-07T15:15:58;1.10;99.90
8557;DHT22;4316;53.840;10.762;2023-02-07T15:18:28;1.20;99.90
8557;DHT22;4316;53.840;10.762;2023-02-07T15:20:56;1.10;99.90
8557;DHT22;4316;53.840;10.762;2023-02-07T15:23:24;1.10;99.90
8557;DHT22;4316;53.840;10.762;2023-02-07T15:25:50;1.10;99.90
8557;DHT22;4316;53.840;10.762;2023-02-07T15:31:04;1.10;99.90
8557;DHT22;4316;53.840;10.762;2023-02-07T15:36:05;1.20;99.90
8557;DHT22;4316;53.840;10.762;2023-02-07T15:38:32;1.10;99.90
8557;DHT22;4316;53.840;10.762;2023-02-07T15:40:58;1.10;99.90
8557;DHT22;4316;53.840;10.762;2023-02-07T15:43:26;1.10;99.90
8557;DHT22;4316;53.840;10.762;2023-02-07T15:46:08;1.00;99.90
8557;DHT22;4316;53.840;10.762;2023-02-07T15:48:50;0.90;99.90
8557;DHT22;4316;53.840;10.762;2023-02-07T15:51:28;0.90;99.90
8557;DHT22;4316;53.840;10.762;2023-02-07T15:53:56;0.90;99.90
8557;DHT22;4316;53.840;10.762;2023-02-07T15:56:25;0.90;99.90
8557;DHT22;4316;53.840;10.762;2023-02-07T15:58:57;0.90;99.90
8557;DHT22;4316;53.840;10.762;2023-02-07T16:01:26;0.90;99.90
8557;DHT22;4316;53.840;10.762;2023-02-07T16:03:55;1.10;99.90
8557;DHT22;4316;53.840;10.762;2023-02-07T16:06:23;1.30;99.90
8557;DHT22;4316;53.840;10.762;2023-02-07T16:08:52;1.40;99.90
8557;DHT22;4316;53.840;10.762;2023-02-07T16:16:39;2.10;99.90
8557;DHT22;4316;53.840;10.762;2023-02-07T16:19:17;2.00;99.90
8557;DHT22;4316;53.840;10.762;2023-02-07T16:21:45;2.10;99.90
8557;DHT22;4316;53.840;10.762;2023-02-07T16:24:18;2.00;99.90
8557;DHT22;4316;53.840;10.762;2023-02-07T16:26:44;2.00;99.90
8557;DHT22;4316;53.840;10.762;2023-02-07T16:29:15;2.00;99.90
8557;DHT22;4316;53.840;10.762;2023-02-07T16:31:42;1.90;99.90
8557;DHT22;4316;53.840;10.762;2023-02-07T16:34:12;1.90;99.90
8557;DHT22;4316;53.840;10.762;2023-02-07T16:36:39;1.90;99.90
8557;DHT22;4316;53.840;10.762;2023-02-07T16:39:05;1.90;99.90
8557;DHT22;4316;53.840;10.762;2023-02-07T16:41:33;1.80;99.90
8557;DHT22;4316;53.840;10.762;2023-02-07T16:44:05;1.80;99.90
8557;DHT22;4316;53.840;10.762;2023-02-07T16:46:31;1.80;99.90
8557;DHT22;4316;53.840;10.762;2023-02-07T16:48:57;1.80;99.90
8557;DHT22;4316;53.840;10.762;2023-02-07T16:51:23;1.80;99.90
8557;DHT22;4316;53.840;10.762;2023-02-07T16:53:49;1.70;99.90
8557;DHT22;4316;53.840;10.762;2023-02-07T16:56:23;1.70;99.90
8557;DHT22;4316;53.840;10.762;2023-02-07T16:58:49;1.60;99.90
8557;DHT22;4316;53.840;10.762;2023-02-07T17:01:17;1.60;99.90
8557;DHT22;4316;53.840;10.762;2023-02-07T17:03:44;1.60;99.90
8557;DHT22;4316;53.840;10.762;2023-02-07T17:06:17;1.50;99.90
8557;DHT22;4316;53.840;10.762;2023-02-07T17:08:44;1.50;99.90
8557;DHT22;4316;53.840;10.762;2023-02-07T17:11:16;1.40;99.90
8557;DHT22;4316;53.840;10.762;2023-02-07T17:13:45;1.40;99.90
8557;DHT22;4316;53.840;10.762;2023-02-07T17:16:11;1.40;99.90
8557;DHT22;4316;53.840;10.762;2023-02-07T17:18:39;1.40;99.90
8557;DHT22;4316;53.840;10.762;2023-02-07T17:21:05;1.30;99.90
8557;DHT22;4316;53.840;10.762;2023-02-07T17:23:34;1.20;99.90
8557;DHT22;4316;53.840;10.762;2023-02-07T17:26:00;1.20;99.90
8557;DHT22;4316;53.840;10.762;2023-02-07T17:28:26;1.20;99.90
8557;DHT22;4316;53.840;10.762;2023-02-07T17:30:53;1.10;99.90
8557;DHT22;4316;53.840;10.762;2023-02-07T17:33:21;1.10;99.90
8557;DHT22;4316;53.840;10.762;2023-02-07T17:35:47;1.10;99.90
8557;DHT22;4316;53.840;10.762;2023-02-07T17:38:12;1.00;99.90
8557;DHT22;4316;53.840;10.762;2023-02-07T17:40:39;1.00;99.90
8557;DHT22;4316;53.840;10.762;2023-02-07T17:43:06;0.90;99.90
8557;DHT22;4316;53.840;10.762;2023-02-07T17:45:34;0.90;99.90
8557;DHT22;4316;53.840;10.762;2023-02-07T17:48:00;0.90;99.90
8557;DHT22;4316;53.840;10.762;2023-02-07T17:50:29;0.80;99.90
8557;DHT22;4316;53.840;10.762;2023-02-07T17:52:56;0.70;99.90
8557;DHT22;4316;53.840;10.762;2023-02-07T17:55:22;0.70;99.90
8557;DHT22;4316;53.840;10.762;2023-02-07T17:57:48;0.70;99.90
8557;DHT22;4316;53.840;10.762;2023-02-07T18:00:18;0.70;99.90
8557;DHT22;4316;53.840;10.762;2023-02-07T18:02:45;0.60;99.90
8557;DHT22;4316;53.840;10.762;2023-02-07T18:05:11;0.60;99.90
8557;DHT22;4316;53.840;10.762;2023-02-07T18:07:37;0.60;99.90
8557;DHT22;4316;53.840;10.762;2023-02-07T18:10:04;0.50;99.90
8557;DHT22;4316;53.840;10.762;2023-02-07T18:12:32;0.50;99.90
8557;DHT22;4316;53.840;10.762;2023-02-07T18:14:57;0.50;99.90
8557;DHT22;4316;53.840;10.762;2023-02-07T18:17:23;0.40;99.90
8557;DHT22;4316;53.840;10.762;2023-02-07T18:19:50;0.40;99.90
8557;DHT22;4316;53.840;10.762;2023-02-07T18:22:16;0.40;99.90
8557;DHT22;4316;53.840;10.762;2023-02-07T18:24:42;0.30;99.90
8557;DHT22;4316;53.840;10.762;2023-02-07T18:27:08;0.30;99.90
8557;DHT22;4316;53.840;10.762;2023-02-07T18:29:34;0.30;99.90